createdAt,value
2018-03-22T00:02:24.459Z,99110.10
2018-03-22T00:04:53.124Z,99106.98
2018-03-22T00:07:20.600Z,99100.34
2018-03-22T00:09:48.073Z,99105.08
2018-03-22T00:12:15.806Z,99100.57
2018-03-22T00:14:43.269Z,99104.66
2018-03-22T00:17:10.744Z,99100.11
2018-03-22T00:19:38.505Z,99096.15
2018-03-22T00:22:06.340Z,99094.04
2018-03-22T00:24:33.802Z,99098.25
2018-03-22T00:27:01.706Z,99096.59
2018-03-22T00:29:29.168Z,99094.87
2018-03-22T00:31:56.636Z,99089.77
2018-03-22T00:34:24.483Z,99095.64
2018-03-22T00:36:51.937Z,99087.86
2018-03-22T00:39:19.447Z,99086.14
2018-03-22T00:41:47.162Z,99081.44
2018-03-22T00:44:14.638Z,99083.31
2018-03-22T00:46:42.093Z,99076.66
2018-03-22T00:49:09.870Z,99080.46
2018-03-22T00:51:37.316Z,99073.13
2018-03-22T00:54:04.777Z,99061.44
2018-03-22T00:56:32.533Z,99061.09
2018-03-22T00:58:59.997Z,99060.90
2018-03-22T01:01:27.460Z,99059.39
2018-03-22T01:03:55.217Z,99060.25
2018-03-22T01:06:22.675Z,99051.98
2018-03-22T01:08:50.138Z,99049.57
2018-03-22T01:11:17.913Z,99041.47
2018-03-22T01:13:45.374Z,99035.63
2018-03-22T01:16:12.833Z,99035.70
2018-03-22T01:18:40.602Z,99036.38
2018-03-22T01:21:08.066Z,99039.17
2018-03-22T01:23:35.897Z,99039.00
2018-03-22T01:26:03.900Z,99031.80
2018-03-22T01:28:31.357Z,99025.63
2018-03-22T01:30:58.818Z,99021.39
2018-03-22T01:33:26.581Z,99021.36
2018-03-22T01:35:54.040Z,99028.22
2018-03-22T01:38:21.502Z,99026.30
2018-03-22T01:40:49.279Z,99025.45
2018-03-22T01:43:16.748Z,99023.59
2018-03-22T01:45:44.237Z,99019.75
2018-03-22T01:48:11.956Z,99023.10
2018-03-22T01:50:39.421Z,99021.06
2018-03-22T01:53:13.648Z,99013.48
2018-03-22T01:55:41.102Z,99013.50
2018-03-22T01:58:08.570Z,99008.81
2018-03-22T02:00:36.633Z,99006.79
2018-03-22T02:03:05.168Z,99008.01
2018-03-22T02:05:32.633Z,99008.23
2018-03-22T02:08:00.557Z,99009.78
2018-03-22T02:10:28.014Z,99008.67
2018-03-22T02:12:55.475Z,99005.97
2018-03-22T02:15:23.239Z,99004.53
2018-03-22T02:20:32.902Z,98999.67
2018-03-22T02:23:00.366Z,98995.98
2018-03-22T02:25:28.201Z,98992.94
2018-03-22T02:27:55.901Z,99001.95
2018-03-22T02:30:23.364Z,98989.38
2018-03-22T02:32:50.822Z,98991.81
2018-03-22T02:35:18.893Z,98988.93
2018-03-22T02:37:46.352Z,98989.28
2018-03-22T02:40:13.849Z,98988.80
2018-03-22T02:42:41.595Z,98989.10
2018-03-22T02:45:09.681Z,98978.12
2018-03-22T02:47:37.147Z,98983.98
2018-03-22T02:50:04.824Z,98983.05
2018-03-22T02:52:32.281Z,98984.67
2018-03-22T02:54:59.740Z,98974.78
2018-03-22T02:57:27.815Z,98976.62
2018-03-22T03:02:37.545Z,98954.98
2018-03-22T03:05:05.011Z,98957.30
2018-03-22T03:07:32.470Z,98956.05
2018-03-22T03:10:00.228Z,98952.73
2018-03-22T03:12:27.694Z,98949.50
2018-03-22T03:14:55.160Z,98944.30
2018-03-22T03:17:22.914Z,98938.89
2018-03-22T03:19:50.395Z,98934.98
2018-03-22T03:22:17.857Z,98937.91
2018-03-22T03:24:45.606Z,98937.75
2018-03-22T03:27:13.762Z,98940.17
2018-03-22T03:29:41.235Z,98931.05
2018-03-22T03:32:08.870Z,98929.20
2018-03-22T03:34:36.338Z,98932.00
2018-03-22T03:37:03.889Z,98922.80
2018-03-22T03:39:31.589Z,98924.65
2018-03-22T03:41:59.056Z,98934.48
2018-03-22T03:44:26.512Z,98926.45
2018-03-22T03:46:54.277Z,98932.11
2018-03-22T03:49:21.737Z,98929.42
2018-03-22T03:51:49.574Z,98918.77
2018-03-22T03:54:17.569Z,98920.69
2018-03-22T03:56:45.028Z,98909.53
2018-03-22T03:59:12.485Z,98912.28
2018-03-22T04:01:40.264Z,98911.39
2018-03-22T04:04:07.732Z,98906.09
2018-03-22T04:06:35.190Z,98905.63
2018-03-22T04:09:02.946Z,98908.84
2018-03-22T04:11:30.402Z,98905.69
2018-03-22T04:13:57.866Z,98904.97
2018-03-22T04:16:25.587Z,98891.50
2018-03-22T04:18:53.050Z,98891.08
2018-03-22T04:21:20.599Z,98890.38
2018-03-22T04:23:48.626Z,98895.89
2018-03-22T04:26:16.077Z,98887.73
2018-03-22T04:28:43.984Z,98883.64
2018-03-22T04:31:11.635Z,98889.64
2018-03-22T04:33:39.098Z,98878.78
2018-03-22T04:36:06.552Z,98881.98
2018-03-22T04:38:34.310Z,98876.41
2018-03-22T04:41:01.779Z,98873.98
2018-03-22T04:43:29.538Z,98873.90
2018-03-22T04:45:57.314Z,98872.89
2018-03-22T04:48:24.770Z,98871.63
2018-03-22T04:50:52.228Z,98867.92
2018-03-22T04:53:19.983Z,98868.30
2018-03-22T04:55:47.443Z,98873.53
2018-03-22T04:58:14.918Z,98868.05
2018-03-22T05:00:42.685Z,98863.59
2018-03-22T05:03:10.177Z,98860.77
2018-03-22T05:05:37.641Z,98860.16
2018-03-22T05:08:05.437Z,98863.36
2018-03-22T05:10:32.917Z,98860.80
2018-03-22T05:13:00.373Z,98865.75
2018-03-22T05:15:28.032Z,98862.31
2018-03-22T05:17:55.490Z,98854.36
2018-03-22T05:20:22.952Z,98857.56
2018-03-22T05:22:50.746Z,98852.06
2018-03-22T05:25:18.217Z,98853.69
2018-03-22T05:27:45.677Z,98841.62
2018-03-22T05:30:13.785Z,98843.36
2018-03-22T05:32:41.242Z,98848.70
2018-03-22T05:35:08.713Z,98845.16
2018-03-22T05:37:36.734Z,98842.73
2018-03-22T05:40:04.194Z,98843.98
2018-03-22T05:42:31.658Z,98843.69
2018-03-22T05:44:59.725Z,98841.06
2018-03-22T05:47:27.220Z,98834.25
2018-03-22T05:49:54.686Z,98832.75
2018-03-22T05:52:22.415Z,98829.98
2018-03-22T05:54:49.872Z,98825.77
2018-03-22T05:57:17.332Z,98828.98
2018-03-22T05:59:45.127Z,98829.34
2018-03-22T06:02:12.590Z,98827.59
2018-03-22T06:04:40.076Z,98822.79
2018-03-22T06:07:07.737Z,98824.54
2018-03-22T06:09:35.218Z,98817.78
2018-03-22T06:12:02.682Z,98816.02
2018-03-22T06:14:30.477Z,98823.66
2018-03-22T06:16:57.937Z,98817.98
2018-03-22T06:19:25.410Z,98814.20
2018-03-22T06:21:53.171Z,98810.24
2018-03-22T06:24:20.629Z,98816.11
2018-03-22T06:26:48.259Z,98810.64
2018-03-22T06:29:16.151Z,98809.30
2018-03-22T06:31:43.953Z,98810.80
2018-03-22T06:34:11.405Z,98808.78
2018-03-22T06:36:39.164Z,98800.64
2018-03-22T06:39:06.641Z,98798.69
2018-03-22T06:41:34.108Z,98798.62
2018-03-22T06:44:02.139Z,98795.61
2018-03-22T06:46:29.592Z,98787.09
2018-03-22T06:48:57.066Z,98788.08
2018-03-22T06:51:24.786Z,98795.34
2018-03-22T06:53:52.249Z,98790.14
2018-03-22T06:56:19.697Z,98790.15
2018-03-22T06:58:47.523Z,98794.36
2018-03-22T07:01:14.978Z,98787.77
2018-03-22T07:03:42.434Z,98785.18
2018-03-22T07:06:10.201Z,98788.58
2018-03-22T07:08:37.658Z,98791.94
2018-03-22T07:11:05.118Z,98785.20
2018-03-22T07:13:32.878Z,98783.02
2018-03-22T07:16:00.329Z,98778.61
2018-03-22T07:18:27.785Z,98781.02
2018-03-22T07:20:55.569Z,98774.34
2018-03-22T07:23:23.030Z,98779.64
2018-03-22T07:25:50.494Z,98771.41
2018-03-22T07:28:18.444Z,98768.23
2018-03-22T07:30:45.902Z,98768.02
2018-03-22T07:33:13.865Z,98767.71
2018-03-22T07:35:41.876Z,98763.70
2018-03-22T07:38:09.342Z,98766.34
2018-03-22T07:40:36.801Z,98752.48
2018-03-22T07:43:10.081Z,98747.42
2018-03-22T07:45:37.538Z,98747.61
2018-03-22T07:48:04.994Z,98744.58
2018-03-22T07:50:32.830Z,98741.34
2018-03-22T07:53:00.293Z,98741.52
2018-03-22T07:55:27.748Z,98739.15
2018-03-22T07:57:55.469Z,98737.38
2018-03-22T08:00:22.969Z,98730.35
2018-03-22T08:02:50.436Z,98725.81
2018-03-22T08:05:18.158Z,98728.59
2018-03-22T08:07:45.621Z,98724.14
2018-03-22T08:10:13.086Z,98724.57
2018-03-22T08:12:40.851Z,98715.67
2018-03-22T08:15:08.314Z,98713.05
2018-03-22T08:17:35.765Z,98705.56
2018-03-22T08:20:03.521Z,98701.86
2018-03-22T08:22:30.984Z,98700.54
2018-03-22T08:24:58.452Z,98693.82
2018-03-22T08:27:26.217Z,98689.01
2018-03-22T08:29:53.677Z,98692.88
2018-03-22T08:32:21.136Z,98692.35
2018-03-22T08:34:50.080Z,98682.26
2018-03-22T08:37:17.534Z,98689.34
2018-03-22T08:39:44.990Z,98682.14
2018-03-22T08:42:12.820Z,98675.26
2018-03-22T08:44:40.278Z,98676.67
2018-03-22T08:47:07.741Z,98669.84
2018-03-22T08:49:35.510Z,98668.17
2018-03-22T08:52:02.979Z,98665.81
2018-03-22T08:54:30.440Z,98669.87
2018-03-22T08:56:58.150Z,98664.38
2018-03-22T08:59:25.625Z,98663.28
2018-03-22T09:01:53.089Z,98659.52
2018-03-22T09:04:20.877Z,98655.41
2018-03-22T09:06:48.333Z,98652.35
2018-03-22T09:09:15.798Z,98645.83
2018-03-22T09:11:43.873Z,98640.39
2018-03-22T09:14:11.337Z,98641.20
2018-03-22T09:16:38.806Z,98639.85
2018-03-22T09:19:06.878Z,98629.33
2018-03-22T09:21:34.343Z,98628.31
2018-03-22T09:24:01.805Z,98622.75
2018-03-22T09:26:29.556Z,98618.99
2018-03-22T09:28:57.024Z,98617.48
2018-03-22T09:31:24.473Z,98613.17
2018-03-22T09:33:52.549Z,98615.17
2018-03-22T09:36:20.068Z,98600.67
2018-03-22T09:38:47.522Z,98607.13
2018-03-22T09:41:15.859Z,98598.13
2018-03-22T09:43:43.309Z,98597.42
2018-03-22T09:46:10.778Z,98593.34
2018-03-22T09:48:38.536Z,98588.66
2018-03-22T09:51:06.001Z,98578.38
2018-03-22T09:53:33.458Z,98573.53
2018-03-22T09:56:01.224Z,98573.75
2018-03-22T09:58:28.696Z,98570.32
2018-03-22T10:00:56.537Z,98570.66
2018-03-22T10:03:24.529Z,98581.55
2018-03-22T10:05:52.373Z,98564.39
2018-03-22T10:08:19.834Z,98553.74
2018-03-22T10:10:47.856Z,98539.96
2018-03-22T10:13:15.311Z,98544.68
2018-03-22T10:15:42.768Z,98538.08
2018-03-22T10:18:10.510Z,98534.02
2018-03-22T10:20:37.973Z,98529.08
2018-03-22T10:23:05.438Z,98525.53
2018-03-22T10:25:33.205Z,98529.86
2018-03-22T10:28:00.663Z,98518.59
2018-03-22T10:30:28.127Z,98514.70
2018-03-22T10:32:55.889Z,98508.40
2018-03-22T10:35:23.422Z,98501.83
2018-03-22T10:37:51.206Z,98503.49
2018-03-22T10:40:19.201Z,98492.89
2018-03-22T10:42:46.661Z,98487.88
2018-03-22T10:45:14.120Z,98488.95
2018-03-22T10:47:41.874Z,98485.09
2018-03-22T10:50:09.337Z,98478.28
2018-03-22T10:52:36.809Z,98469.61
2018-03-22T10:55:04.565Z,98466.52
2018-03-22T10:57:32.030Z,98451.84
2018-03-22T10:59:59.489Z,98449.70
2018-03-22T11:02:32.783Z,98448.66
2018-03-22T11:05:00.246Z,98439.67
2018-03-22T11:07:27.708Z,98436.64
2018-03-22T11:09:55.680Z,98419.19
2018-03-22T11:12:23.137Z,98413.61
2018-03-22T11:14:50.601Z,98429.41
2018-03-22T11:17:18.466Z,98403.56
2018-03-22T11:19:45.935Z,98391.09
2018-03-22T11:22:13.408Z,98382.11
2018-03-22T11:24:41.137Z,98395.52
2018-03-22T11:27:08.861Z,98390.02
2018-03-22T11:29:36.329Z,98375.45
2018-03-22T11:32:04.141Z,98366.75
2018-03-22T11:34:31.603Z,98368.73
2018-03-22T11:36:59.069Z,98353.07
2018-03-22T11:39:28.985Z,98362.60
2018-03-22T11:41:56.450Z,98345.02
2018-03-22T11:44:23.909Z,98349.30
2018-03-22T11:46:51.669Z,98336.95
2018-03-22T11:49:19.145Z,98340.80
2018-03-22T11:51:46.629Z,98329.09
2018-03-22T11:54:14.353Z,98325.64
2018-03-22T11:56:41.811Z,98330.28
2018-03-22T11:59:09.289Z,98316.70
2018-03-22T12:01:36.969Z,98311.63
2018-03-22T12:04:04.439Z,98301.91
2018-03-22T12:06:31.907Z,98290.59
2018-03-22T12:08:59.733Z,98287.63
2018-03-22T12:11:27.211Z,98285.03
2018-03-22T12:13:54.675Z,98286.37
2018-03-22T12:16:22.405Z,98281.53
2018-03-22T12:18:49.873Z,98289.45
2018-03-22T12:21:17.334Z,98281.70
2018-03-22T12:23:45.112Z,98267.25
2018-03-22T12:26:12.568Z,98259.84
2018-03-22T12:28:40.071Z,98248.85
2018-03-22T12:31:07.790Z,98250.92
2018-03-22T12:33:35.262Z,98239.27
2018-03-22T12:36:02.720Z,98235.92
2018-03-22T12:38:30.470Z,98231.66
2018-03-22T12:40:58.630Z,98226.34
2018-03-22T12:43:26.122Z,98224.27
2018-03-22T12:45:54.080Z,98235.08
2018-03-22T12:48:21.541Z,98226.19
2018-03-22T12:50:49.005Z,98220.52
2018-03-22T12:53:16.726Z,98218.69
2018-03-22T12:55:44.180Z,98226.67
2018-03-22T12:58:11.647Z,98213.69
2018-03-22T13:00:39.462Z,98212.20
2018-03-22T13:03:06.945Z,98208.31
2018-03-22T13:05:34.417Z,98209.14
2018-03-22T13:08:02.153Z,98200.32
2018-03-22T13:10:29.620Z,98203.69
2018-03-22T13:12:57.084Z,98193.39
2018-03-22T13:15:24.833Z,98191.53
2018-03-22T13:17:52.302Z,98207.09
2018-03-22T13:20:19.771Z,98194.87
2018-03-22T13:22:47.562Z,98180.61
2018-03-22T13:25:15.026Z,98175.09
2018-03-22T13:27:42.498Z,98183.74
2018-03-22T13:30:10.506Z,98184.41
2018-03-22T13:32:37.973Z,98161.63
2018-03-22T13:35:05.427Z,98157.56
2018-03-22T13:37:33.110Z,98156.65
2018-03-22T13:40:00.578Z,98148.83
2018-03-22T13:42:28.518Z,98141.03
2018-03-22T13:44:56.498Z,98137.98
2018-03-22T13:47:24.110Z,98144.47
2018-03-22T13:49:51.577Z,98129.01
2018-03-22T13:52:19.500Z,98135.52
2018-03-22T13:54:46.957Z,98140.42
2018-03-22T13:57:16.009Z,98132.75
2018-03-22T13:59:43.601Z,98134.75
2018-03-22T14:02:11.063Z,98116.47
2018-03-22T14:04:38.535Z,98128.92
2018-03-22T14:07:06.658Z,98126.64
2018-03-22T14:09:34.119Z,98117.39
2018-03-22T14:12:01.582Z,98104.06
2018-03-22T14:14:29.401Z,98101.84
2018-03-22T14:16:56.880Z,98089.38
2018-03-22T14:19:24.345Z,98083.84
2018-03-22T14:21:52.397Z,98095.36
2018-03-22T14:24:19.861Z,98094.21
2018-03-22T14:26:47.361Z,98083.91
2018-03-22T14:29:15.310Z,98085.71
2018-03-22T14:31:42.768Z,98075.95
2018-03-22T14:34:10.230Z,98070.91
2018-03-22T14:36:38.022Z,98056.25
2018-03-22T14:39:05.502Z,98058.23
2018-03-22T14:41:32.968Z,98057.24
2018-03-22T14:44:01.678Z,98044.66
2018-03-22T14:46:29.142Z,98046.28
2018-03-22T14:48:56.614Z,98035.12
2018-03-22T14:51:24.373Z,98041.04
2018-03-22T14:53:51.909Z,98032.07
2018-03-22T14:56:19.380Z,98033.33
2018-03-22T14:58:47.360Z,98027.05
2018-03-22T15:01:14.813Z,98016.36
2018-03-22T15:03:42.278Z,98018.83
2018-03-22T15:06:10.049Z,98016.05
2018-03-22T15:08:37.525Z,98018.92
2018-03-22T15:11:05.004Z,98010.56
2018-03-22T15:13:33.662Z,98008.01
2018-03-22T15:16:01.125Z,98001.53
2018-03-22T15:18:28.586Z,98009.69
2018-03-22T15:20:56.358Z,98009.45
2018-03-22T15:23:23.828Z,98007.34
2018-03-22T15:25:51.293Z,98007.62
2018-03-22T15:28:19.074Z,98005.41
2018-03-22T15:30:46.509Z,98000.83
2018-03-22T15:33:13.975Z,97998.00
2018-03-22T15:35:42.024Z,98001.30
2018-03-22T15:38:09.492Z,98002.35
2018-03-22T15:40:36.962Z,97997.66
2018-03-22T15:43:05.017Z,97997.81
2018-03-22T15:45:33.166Z,97999.93
2018-03-22T15:48:00.641Z,97994.33
2018-03-22T15:50:28.641Z,97988.82
2018-03-22T15:52:56.109Z,97994.95
2018-03-22T15:55:23.583Z,97995.12
2018-03-22T15:57:51.328Z,97985.92
2018-03-22T16:00:18.793Z,97990.32
2018-03-22T16:02:46.249Z,97986.59
2018-03-22T16:05:14.017Z,97983.25
2018-03-22T16:07:41.484Z,97984.19
2018-03-22T16:10:08.945Z,97979.62
2018-03-22T16:12:36.689Z,97976.92
2018-03-22T16:15:04.145Z,97978.61
2018-03-22T16:17:31.617Z,97966.55
2018-03-22T16:19:59.379Z,97971.93
2018-03-22T16:22:26.842Z,97963.87
2018-03-22T16:24:54.306Z,97959.91
2018-03-22T16:27:22.069Z,97967.77
2018-03-22T16:29:49.544Z,97958.54
2018-03-22T16:32:17.025Z,97965.98
2018-03-22T16:34:45.066Z,97962.73
2018-03-22T16:37:12.529Z,97965.99
2018-03-22T16:39:39.989Z,97969.77
2018-03-22T16:42:07.757Z,97965.63
2018-03-22T16:44:35.226Z,97972.55
2018-03-22T16:47:03.353Z,97964.73
2018-03-22T16:49:31.051Z,97960.33
2018-03-22T16:51:58.517Z,97962.05
2018-03-22T16:54:25.982Z,97962.14
2018-03-22T16:56:53.745Z,97962.81
2018-03-22T16:59:21.209Z,97960.47
2018-03-22T17:01:48.670Z,97963.64
2018-03-22T17:04:16.440Z,97963.49
2018-03-22T17:06:43.899Z,97963.71
2018-03-22T17:09:11.366Z,97964.59
2018-03-22T17:11:39.108Z,97964.52
2018-03-22T17:14:06.577Z,97963.36
2018-03-22T17:16:34.043Z,97966.04
2018-03-22T17:19:01.806Z,97967.40
2018-03-22T17:21:29.308Z,97956.73
2018-03-22T17:23:56.774Z,97965.20
2018-03-22T17:26:24.765Z,97960.17
2018-03-22T17:28:52.237Z,97956.75
2018-03-22T17:31:19.705Z,97963.20
2018-03-22T17:33:48.418Z,97962.79
2018-03-22T17:36:15.889Z,97961.20
2018-03-22T17:38:43.364Z,97942.58
2018-03-22T17:41:11.106Z,97947.02
2018-03-22T17:43:38.598Z,97941.84
2018-03-22T17:46:06.066Z,97940.88
2018-03-22T17:48:34.385Z,97943.51
2018-03-22T17:51:01.840Z,97945.28
2018-03-22T17:53:29.420Z,97947.45
2018-03-22T17:55:57.389Z,97951.05
2018-03-22T17:58:24.841Z,97948.48
2018-03-22T18:00:52.302Z,97953.27
2018-03-22T18:03:20.077Z,97950.41
2018-03-22T18:05:47.540Z,97951.16
2018-03-22T18:08:15.006Z,97955.60
2018-03-22T18:10:42.767Z,97946.17
2018-03-22T18:13:10.244Z,97959.38
2018-03-22T18:15:37.725Z,97942.09
2018-03-22T18:18:05.449Z,97950.55
2018-03-22T18:20:32.906Z,97947.59
2018-03-22T18:23:00.369Z,97946.11
2018-03-22T18:25:28.168Z,97946.52
2018-03-22T18:27:55.628Z,97954.89
2018-03-22T18:30:23.095Z,97957.68
2018-03-22T18:32:50.824Z,97953.70
2018-03-22T18:35:18.336Z,97953.03
2018-03-22T18:37:45.788Z,97957.08
2018-03-22T18:40:13.550Z,97952.79
2018-03-22T18:42:40.977Z,97949.06
2018-03-22T18:45:08.441Z,97953.27
2018-03-22T18:47:36.194Z,97951.48
2018-03-22T18:50:04.341Z,97950.69
2018-03-22T18:52:31.811Z,97950.97
2018-03-22T18:54:59.809Z,97944.78
2018-03-22T18:57:27.264Z,97953.36
2018-03-22T18:59:54.737Z,97949.65
2018-03-22T19:02:22.528Z,97951.28
2018-03-22T19:04:50.001Z,97954.57
2018-03-22T19:07:17.485Z,97954.81
2018-03-22T19:09:45.177Z,97974.77
2018-03-22T19:12:12.638Z,97959.56
2018-03-22T19:14:40.099Z,97962.21
2018-03-22T19:17:07.693Z,97956.28
2018-03-22T19:19:35.159Z,97962.62
2018-03-22T19:22:02.611Z,97977.34
2018-03-22T19:24:30.565Z,97961.03
2018-03-22T19:26:58.039Z,97979.23
2018-03-22T19:29:25.504Z,97984.41
2018-03-22T19:31:53.590Z,97972.26
2018-03-22T19:34:21.031Z,97976.08
2018-03-22T19:36:48.482Z,97951.90
2018-03-22T19:39:16.852Z,97950.12
2018-03-22T19:41:44.321Z,97950.70
2018-03-22T19:44:11.794Z,97956.68
2018-03-22T19:46:39.726Z,97949.26
2018-03-22T19:49:07.182Z,97945.67
2018-03-22T19:51:35.141Z,97946.01
2018-03-22T19:54:02.857Z,97966.95
2018-03-22T19:56:30.347Z,97958.71
2018-03-22T19:58:58.137Z,97952.53
2018-03-22T20:01:26.452Z,97960.56
2018-03-22T20:03:53.981Z,97963.05
2018-03-22T20:06:21.460Z,97965.39
2018-03-22T20:08:49.487Z,97958.54
2018-03-22T20:11:16.949Z,97972.25
2018-03-22T20:13:44.407Z,97967.94
2018-03-22T20:16:12.434Z,97961.38
2018-03-22T20:18:39.898Z,97968.97
2018-03-22T20:21:07.362Z,97972.97
2018-03-22T20:23:35.738Z,97971.88
2018-03-22T20:26:03.209Z,97969.62
2018-03-22T20:28:31.023Z,97968.20
2018-03-22T20:30:59.008Z,97970.07
2018-03-22T20:33:26.505Z,97969.77
2018-03-22T20:35:53.965Z,97970.66
2018-03-22T20:38:21.721Z,97982.63
2018-03-22T20:40:49.179Z,97972.73
2018-03-22T20:43:16.656Z,97968.30
2018-03-22T20:45:44.318Z,97961.27
2018-03-22T20:48:11.777Z,97959.63
2018-03-22T20:50:39.239Z,97958.05
2018-03-22T20:53:07.106Z,97960.69
2018-03-22T20:55:34.567Z,97962.62
2018-03-22T20:58:02.022Z,97969.47
2018-03-22T21:00:29.790Z,97960.97
2018-03-22T21:02:57.256Z,97971.97
2018-03-22T21:05:24.712Z,97958.56
2018-03-22T21:07:52.741Z,97958.26
2018-03-22T21:10:20.220Z,97960.90
2018-03-22T21:12:47.686Z,97971.52
2018-03-22T21:15:15.469Z,97974.89
2018-03-22T21:17:42.932Z,97967.61
2018-03-22T21:20:10.402Z,97968.77
2018-03-22T21:22:38.153Z,97957.58
2018-03-22T21:25:05.606Z,97969.64
2018-03-22T21:27:33.060Z,97961.98
2018-03-22T21:30:00.856Z,97970.92
2018-03-22T21:32:28.312Z,97982.42
2018-03-22T21:34:55.777Z,97965.03
2018-03-22T21:37:23.526Z,97968.06
2018-03-22T21:39:52.240Z,97963.08
2018-03-22T21:42:19.699Z,97960.13
2018-03-22T21:44:47.450Z,97966.23
2018-03-22T21:47:26.537Z,97964.33
2018-03-22T21:49:54.345Z,97968.73
2018-03-22T21:52:33.568Z,97966.39
2018-03-22T21:55:01.257Z,97964.15
2018-03-22T21:57:28.721Z,97968.14
2018-03-22T21:59:56.181Z,97969.33
2018-03-22T22:02:23.936Z,97966.30
2018-03-22T22:04:51.394Z,97963.61
2018-03-22T22:07:18.860Z,97961.70
2018-03-22T22:09:46.629Z,97952.51
2018-03-22T22:12:14.090Z,97949.09
2018-03-22T22:14:41.549Z,97947.17
2018-03-22T22:17:09.317Z,97938.98
2018-03-22T22:19:37.104Z,97941.58
2018-03-22T22:22:04.568Z,97932.88
2018-03-22T22:24:32.608Z,97936.47
2018-03-22T22:27:00.114Z,97925.70
2018-03-22T22:29:27.541Z,97915.40
2018-03-22T22:31:55.303Z,97903.42
2018-03-22T22:34:22.761Z,97903.02
2018-03-22T22:36:50.219Z,97905.50
2018-03-22T22:39:17.986Z,97894.62
2018-03-22T22:41:47.361Z,97895.88
2018-03-22T22:44:14.819Z,97886.14
2018-03-22T22:46:42.406Z,97886.41
2018-03-22T22:49:09.878Z,97879.55
2018-03-22T22:51:37.346Z,97874.55
2018-03-22T22:54:05.179Z,97869.84
2018-03-22T22:56:32.641Z,97870.84
2018-03-22T22:59:00.110Z,97876.01
2018-03-22T23:01:28.505Z,97871.45
2018-03-22T23:03:55.957Z,97864.40
2018-03-22T23:06:24.477Z,97866.23
2018-03-22T23:08:52.221Z,97856.84
2018-03-22T23:11:19.688Z,97861.05
2018-03-22T23:13:47.141Z,97854.69
2018-03-22T23:16:15.108Z,97855.75
2018-03-22T23:18:42.570Z,97844.53
2018-03-22T23:21:10.021Z,97845.59
2018-03-22T23:23:37.784Z,97834.11
2018-03-22T23:26:05.243Z,97828.80
2018-03-22T23:28:32.707Z,97832.28
2018-03-22T23:31:00.485Z,97829.98
2018-03-22T23:33:27.947Z,97827.03
2018-03-22T23:35:55.408Z,97826.84
2018-03-22T23:38:23.190Z,97819.50
2018-03-22T23:40:50.645Z,97822.36
2018-03-22T23:43:18.465Z,97812.29
2018-03-22T23:45:46.338Z,97812.48
2018-03-22T23:48:13.789Z,97808.63
2018-03-22T23:50:41.245Z,97807.74
2018-03-22T23:53:09.158Z,97810.24
2018-03-22T23:55:36.609Z,97798.67
2018-03-22T23:58:04.069Z,97801.56
